sensor_id;sensor_type;location;lat;lon;timestamp;temperature;humidity
84008;DHT22;74070;50.948;6.954;2024-03-23T00:53:17;7.30;99.90
84008;DHT22;74070;50.948;6.954;2024-03-23T00:55:44;7.40;99.90
84008;DHT22;74070;50.948;6.954;2024-03-23T00:58:10;7.30;99.90
84008;DHT22;74070;50.948;6.954;2024-03-23T01:00:37;7.30;99.90
84008;DHT22;74070;50.948;6.954;2024-03-23T01:03:05;7.30;99.90
84008;DHT22;74070;50.948;6.954;2024-03-23T01:05:31;7.20;99.90
84008;DHT22;74070;50.948;6.954;2024-03-23T01:07:58;7.20;99.90
84008;DHT22;74070;50.948;6.954;2024-03-23T01:10:25;7.20;99.90
84008;DHT22;74070;50.948;6.954;2024-03-23T01:12:51;7.20;99.90
84008;DHT22;74070;50.948;6.954;2024-03-23T01:15:18;7.20;99.90
84008;DHT22;74070;50.948;6.954;2024-03-23T01:17:44;7.20;99.90
84008;DHT22;74070;50.948;6.954;2024-03-23T01:20:11;7.20;99.90
84008;DHT22;74070;50.948;6.954;2024-03-23T01:22:38;7.20;99.90
84008;DHT22;74070;50.948;6.954;2024-03-23T01:25:04;7.10;99.90
84008;DHT22;74070;50.948;6.954;2024-03-23T01:27:32;6.90;99.90
84008;DHT22;74070;50.948;6.954;2024-03-23T01:29:59;6.80;99.90
84008;DHT22;74070;50.948;6.954;2024-03-23T01:32:26;6.80;99.90
84008;DHT22;74070;50.948;6.954;2024-03-23T01:34:52;6.70;99.90
84008;DHT22;74070;50.948;6.954;2024-03-23T01:37:19;6.70;99.90
84008;DHT22;74070;50.948;6.954;2024-03-23T01:39:45;6.70;99.90
84008;DHT22;74070;50.948;6.954;2024-03-23T01:42:12;6.60;99.90
84008;DHT22;74070;50.948;6.954;2024-03-23T01:44:39;6.50;99.90
84008;DHT22;74070;50.948;6.954;2024-03-23T01:47:06;6.50;99.90
84008;DHT22;74070;50.948;6.954;2024-03-23T01:49:32;6.40;99.90
84008;DHT22;74070;50.948;6.954;2024-03-23T01:51:59;6.40;99.90
84008;DHT22;74070;50.948;6.954;2024-03-23T01:54:26;6.30;99.90
84008;DHT22;74070;50.948;6.954;2024-03-23T01:56:53;6.30;99.90
84008;DHT22;74070;50.948;6.954;2024-03-23T01:59:20;6.40;99.90
84008;DHT22;74070;50.948;6.954;2024-03-23T02:01:47;6.40;99.90
84008;DHT22;74070;50.948;6.954;2024-03-23T02:04:15;6.30;99.90
84008;DHT22;74070;50.948;6.954;2024-03-23T02:06:42;6.30;99.90
84008;DHT22;74070;50.948;6.954;2024-03-23T02:09:09;6.30;99.90
84008;DHT22;74070;50.948;6.954;2024-03-23T02:11:37;6.30;99.90
84008;DHT22;74070;50.948;6.954;2024-03-23T02:14:04;6.30;99.90
84008;DHT22;74070;50.948;6.954;2024-03-23T02:16:31;6.20;99.90
84008;DHT22;74070;50.948;6.954;2024-03-23T02:18:57;6.30;99.90
84008;DHT22;74070;50.948;6.954;2024-03-23T02:21:24;6.30;99.90
84008;DHT22;74070;50.948;6.954;2024-03-23T02:23:50;6.30;99.90
84008;DHT22;74070;50.948;6.954;2024-03-23T02:26:17;6.20;99.90
84008;DHT22;74070;50.948;6.954;2024-03-23T02:28:44;6.20;99.90
84008;DHT22;74070;50.948;6.954;2024-03-23T02:31:10;6.20;99.90
84008;DHT22;74070;50.948;6.954;2024-03-23T02:33:37;6.20;99.90
84008;DHT22;74070;50.948;6.954;2024-03-23T02:36:04;6.20;99.90
84008;DHT22;74070;50.948;6.954;2024-03-23T02:38:30;6.20;99.90
84008;DHT22;74070;50.948;6.954;2024-03-23T02:41:04;5.90;99.90
84008;DHT22;74070;50.948;6.954;2024-03-23T02:43:32;5.80;99.90
84008;DHT22;74070;50.948;6.954;2024-03-23T02:45:58;5.70;99.90
84008;DHT22;74070;50.948;6.954;2024-03-23T02:48:25;5.80;99.90
84008;DHT22;74070;50.948;6.954;2024-03-23T02:50:52;5.70;99.90
84008;DHT22;74070;50.948;6.954;2024-03-23T02:53:20;5.70;99.90
84008;DHT22;74070;50.948;6.954;2024-03-23T02:55:47;5.60;99.90
84008;DHT22;74070;50.948;6.954;2024-03-23T02:58:14;5.60;99.90
84008;DHT22;74070;50.948;6.954;2024-03-23T03:00:42;5.50;99.90
84008;DHT22;74070;50.948;6.954;2024-03-23T03:03:09;5.50;99.90
84008;DHT22;74070;50.948;6.954;2024-03-23T03:05:36;5.50;99.90
84008;DHT22;74070;50.948;6.954;2024-03-23T03:08:04;5.50;99.90
84008;DHT22;74070;50.948;6.954;2024-03-23T03:10:31;5.40;99.90
84008;DHT22;74070;50.948;6.954;2024-03-23T03:12:58;5.50;99.90
84008;DHT22;74070;50.948;6.954;2024-03-23T03:15:25;5.50;99.90
84008;DHT22;74070;50.948;6.954;2024-03-23T03:17:53;5.40;99.90
84008;DHT22;74070;50.948;6.954;2024-03-23T03:20:19;5.40;99.90
84008;DHT22;74070;50.948;6.954;2024-03-23T03:22:46;5.40;99.90
84008;DHT22;74070;50.948;6.954;2024-03-23T03:25:13;5.40;99.90
84008;DHT22;74070;50.948;6.954;2024-03-23T03:27:39;5.30;99.90
84008;DHT22;74070;50.948;6.954;2024-03-23T03:30:07;5.30;99.90
84008;DHT22;74070;50.948;6.954;2024-03-23T03:32:33;5.30;99.90
84008;DHT22;74070;50.948;6.954;2024-03-23T03:35:00;5.30;99.90
84008;DHT22;74070;50.948;6.954;2024-03-23T03:37:27;5.30;99.90
84008;DHT22;74070;50.948;6.954;2024-03-23T03:39:53;5.20;99.90
84008;DHT22;74070;50.948;6.954;2024-03-23T03:42:21;5.20;99.90
84008;DHT22;74070;50.948;6.954;2024-03-23T03:44:48;5.20;99.90
84008;DHT22;74070;50.948;6.954;2024-03-23T03:47:15;5.20;99.90
84008;DHT22;74070;50.948;6.954;2024-03-23T03:49:42;5.10;99.90
84008;DHT22;74070;50.948;6.954;2024-03-23T03:52:09;5.20;99.90
84008;DHT22;74070;50.948;6.954;2024-03-23T03:54:36;5.10;99.90
84008;DHT22;74070;50.948;6.954;2024-03-23T03:57:03;5.10;99.90
84008;DHT22;74070;50.948;6.954;2024-03-23T03:59:31;5.10;99.90
84008;DHT22;74070;50.948;6.954;2024-03-23T04:01:58;5.10;99.90
84008;DHT22;74070;50.948;6.954;2024-03-23T04:04:25;5.10;99.90
84008;DHT22;74070;50.948;6.954;2024-03-23T04:06:59;5.00;99.90
84008;DHT22;74070;50.948;6.954;2024-03-23T04:09:24;5.00;99.90
84008;DHT22;74070;50.948;6.954;2024-03-23T04:11:52;5.10;99.90
84008;DHT22;74070;50.948;6.954;2024-03-23T04:14:19;5.10;99.90
84008;DHT22;74070;50.948;6.954;2024-03-23T04:16:46;5.00;99.90
84008;DHT22;74070;50.948;6.954;2024-03-23T04:19:14;5.00;99.90
84008;DHT22;74070;50.948;6.954;2024-03-23T04:21:41;5.00;99.90
84008;DHT22;74070;50.948;6.954;2024-03-23T04:24:08;5.00;99.90
84008;DHT22;74070;50.948;6.954;2024-03-23T04:26:41;5.00;99.90
84008;DHT22;74070;50.948;6.954;2024-03-23T04:29:07;5.00;99.90
84008;DHT22;74070;50.948;6.954;2024-03-23T04:31:33;5.00;99.90
84008;DHT22;74070;50.948;6.954;2024-03-23T04:34:01;5.10;99.90
84008;DHT22;74070;50.948;6.954;2024-03-23T04:36:27;5.10;99.90
84008;DHT22;74070;50.948;6.954;2024-03-23T04:38:55;5.10;99.90
84008;DHT22;74070;50.948;6.954;2024-03-23T04:41:22;5.10;99.90
84008;DHT22;74070;50.948;6.954;2024-03-23T04:43:49;5.10;99.90
84008;DHT22;74070;50.948;6.954;2024-03-23T04:46:17;5.10;99.90
84008;DHT22;74070;50.948;6.954;2024-03-23T04:48:44;5.10;99.90
84008;DHT22;74070;50.948;6.954;2024-03-23T04:51:19;5.10;99.90
84008;DHT22;74070;50.948;6.954;2024-03-23T04:53:39;5.10;99.90
84008;DHT22;74070;50.948;6.954;2024-03-23T04:56:06;5.10;99.90
84008;DHT22;74070;50.948;6.954;2024-03-23T04:58:33;5.10;99.90
84008;DHT22;74070;50.948;6.954;2024-03-23T05:00:59;5.10;99.90
84008;DHT22;74070;50.948;6.954;2024-03-23T05:03:26;5.10;99.90
84008;DHT22;74070;50.948;6.954;2024-03-23T05:05:52;5.10;99.90
84008;DHT22;74070;50.948;6.954;2024-03-23T05:08:19;5.10;99.90
84008;DHT22;74070;50.948;6.954;2024-03-23T05:10:46;5.10;99.90
84008;DHT22;74070;50.948;6.954;2024-03-23T05:13:12;5.10;99.90
84008;DHT22;74070;50.948;6.954;2024-03-23T05:15:39;5.10;99.90
84008;DHT22;74070;50.948;6.954;2024-03-23T05:18:06;5.10;99.90
84008;DHT22;74070;50.948;6.954;2024-03-23T05:20:32;5.10;99.90
84008;DHT22;74070;50.948;6.954;2024-03-23T05:22:59;5.10;99.90
84008;DHT22;74070;50.948;6.954;2024-03-23T05:25:26;5.10;99.90
84008;DHT22;74070;50.948;6.954;2024-03-23T05:27:52;5.20;99.90
84008;DHT22;74070;50.948;6.954;2024-03-23T05:30:19;5.10;99.90
84008;DHT22;74070;50.948;6.954;2024-03-23T05:32:45;5.20;99.90
84008;DHT22;74070;50.948;6.954;2024-03-23T05:35:13;5.20;99.90
84008;DHT22;74070;50.948;6.954;2024-03-23T05:37:40;5.10;99.90
84008;DHT22;74070;50.948;6.954;2024-03-23T05:40:08;5.20;99.90
84008;DHT22;74070;50.948;6.954;2024-03-23T05:42:34;5.10;99.90
84008;DHT22;74070;50.948;6.954;2024-03-23T05:45:01;5.20;99.90
84008;DHT22;74070;50.948;6.954;2024-03-23T05:47:28;5.20;99.90
84008;DHT22;74070;50.948;6.954;2024-03-23T05:49:54;5.20;99.90
84008;DHT22;74070;50.948;6.954;2024-03-23T05:52:21;5.20;99.90
84008;DHT22;74070;50.948;6.954;2024-03-23T05:54:47;5.20;99.90
84008;DHT22;74070;50.948;6.954;2024-03-23T05:57:15;5.20;99.90
84008;DHT22;74070;50.948;6.954;2024-03-23T05:59:42;5.20;99.90
84008;DHT22;74070;50.948;6.954;2024-03-23T06:02:09;5.20;99.90
84008;DHT22;74070;50.948;6.954;2024-03-23T06:04:37;5.20;99.90
84008;DHT22;74070;50.948;6.954;2024-03-23T06:07:04;5.30;99.90
84008;DHT22;74070;50.948;6.954;2024-03-23T06:09:32;5.20;99.90
84008;DHT22;74070;50.948;6.954;2024-03-23T06:11:59;5.30;99.90
84008;DHT22;74070;50.948;6.954;2024-03-23T06:14:25;5.30;99.90
84008;DHT22;74070;50.948;6.954;2024-03-23T06:16:52;5.30;99.90
84008;DHT22;74070;50.948;6.954;2024-03-23T06:19:18;5.30;99.90
84008;DHT22;74070;50.948;6.954;2024-03-23T06:21:45;5.30;99.90
84008;DHT22;74070;50.948;6.954;2024-03-23T06:24:12;5.20;99.90
84008;DHT22;74070;50.948;6.954;2024-03-23T06:26:39;5.20;99.90
84008;DHT22;74070;50.948;6.954;2024-03-23T06:29:06;5.20;99.90
84008;DHT22;74070;50.948;6.954;2024-03-23T06:31:34;5.20;99.90
84008;DHT22;74070;50.948;6.954;2024-03-23T06:34:01;5.10;99.90
84008;DHT22;74070;50.948;6.954;2024-03-23T06:36:28;5.10;99.90
84008;DHT22;74070;50.948;6.954;2024-03-23T06:38:56;5.10;99.90
84008;DHT22;74070;50.948;6.954;2024-03-23T06:41:24;5.20;99.90
84008;DHT22;74070;50.948;6.954;2024-03-23T06:43:50;5.10;99.90
84008;DHT22;74070;50.948;6.954;2024-03-23T06:46:16;5.20;99.90
84008;DHT22;74070;50.948;6.954;2024-03-23T06:48:44;5.20;99.90
84008;DHT22;74070;50.948;6.954;2024-03-23T06:51:10;5.20;99.90
84008;DHT22;74070;50.948;6.954;2024-03-23T06:53:36;5.20;99.90
84008;DHT22;74070;50.948;6.954;2024-03-23T06:56:03;5.30;99.90
84008;DHT22;74070;50.948;6.954;2024-03-23T06:58:30;5.30;99.90
84008;DHT22;74070;50.948;6.954;2024-03-23T07:00:56;5.40;99.90
84008;DHT22;74070;50.948;6.954;2024-03-23T07:03:24;5.50;99.90
84008;DHT22;74070;50.948;6.954;2024-03-23T07:05:51;5.50;99.90
84008;DHT22;74070;50.948;6.954;2024-03-23T07:08:18;5.60;99.90
84008;DHT22;74070;50.948;6.954;2024-03-23T07:10:46;5.60;99.90
84008;DHT22;74070;50.948;6.954;2024-03-23T07:13:13;5.70;99.90
84008;DHT22;74070;50.948;6.954;2024-03-23T07:15:40;5.70;99.90
84008;DHT22;74070;50.948;6.954;2024-03-23T07:18:08;5.80;99.90
84008;DHT22;74070;50.948;6.954;2024-03-23T07:20:35;5.90;99.90
84008;DHT22;74070;50.948;6.954;2024-03-23T07:23:02;6.00;99.90
84008;DHT22;74070;50.948;6.954;2024-03-23T07:25:29;5.90;99.90
84008;DHT22;74070;50.948;6.954;2024-03-23T07:27:56;6.00;99.90
84008;DHT22;74070;50.948;6.954;2024-03-23T07:30:24;6.20;99.90
84008;DHT22;74070;50.948;6.954;2024-03-23T07:32:50;6.10;99.90
84008;DHT22;74070;50.948;6.954;2024-03-23T07:35:17;6.20;99.90
84008;DHT22;74070;50.948;6.954;2024-03-23T07:37:43;6.20;99.90
84008;DHT22;74070;50.948;6.954;2024-03-23T07:40:10;6.30;99.90
84008;DHT22;74070;50.948;6.954;2024-03-23T07:42:37;6.40;99.90
84008;DHT22;74070;50.948;6.954;2024-03-23T07:45:05;6.50;99.90
84008;DHT22;74070;50.948;6.954;2024-03-23T07:47:31;6.50;99.90
84008;DHT22;74070;50.948;6.954;2024-03-23T07:49:58;6.60;99.90
84008;DHT22;74070;50.948;6.954;2024-03-23T07:52:27;6.80;99.90
84008;DHT22;74070;50.948;6.954;2024-03-23T07:54:51;7.00;99.90
84008;DHT22;74070;50.948;6.954;2024-03-23T07:57:18;7.10;99.90
84008;DHT22;74070;50.948;6.954;2024-03-23T07:59:44;7.20;99.90
84008;DHT22;74070;50.948;6.954;2024-03-23T08:02:11;7.20;99.90
84008;DHT22;74070;50.948;6.954;2024-03-23T08:04:38;7.30;99.90
84008;DHT22;74070;50.948;6.954;2024-03-23T08:07:06;7.20;99.90
84008;DHT22;74070;50.948;6.954;2024-03-23T08:09:33;7.20;99.90
84008;DHT22;74070;50.948;6.954;2024-03-23T08:12:00;7.20;99.90
84008;DHT22;74070;50.948;6.954;2024-03-23T08:14:28;7.30;99.90
84008;DHT22;74070;50.948;6.954;2024-03-23T08:16:54;7.20;99.90
84008;DHT22;74070;50.948;6.954;2024-03-23T08:19:21;7.40;99.90
84008;DHT22;74070;50.948;6.954;2024-03-23T08:21:49;7.40;99.90
84008;DHT22;74070;50.948;6.954;2024-03-23T08:24:17;7.50;99.90
84008;DHT22;74070;50.948;6.954;2024-03-23T08:26:44;7.60;99.90
84008;DHT22;74070;50.948;6.954;2024-03-23T08:29:10;7.60;99.90
84008;DHT22;74070;50.948;6.954;2024-03-23T08:31:37;7.90;99.90
84008;DHT22;74070;50.948;6.954;2024-03-23T08:34:04;8.00;99.90
84008;DHT22;74070;50.948;6.954;2024-03-23T08:36:30;8.20;99.90
84008;DHT22;74070;50.948;6.954;2024-03-23T08:38:57;8.10;99.90
84008;DHT22;74070;50.948;6.954;2024-03-23T08:41:23;7.90;99.90
84008;DHT22;74070;50.948;6.954;2024-03-23T08:43:51;7.80;99.90
84008;DHT22;74070;50.948;6.954;2024-03-23T08:46:17;7.70;99.90
84008;DHT22;74070;50.948;6.954;2024-03-23T08:48:44;7.80;99.90
84008;DHT22;74070;50.948;6.954;2024-03-23T08:51:11;8.00;99.90
84008;DHT22;74070;50.948;6.954;2024-03-23T08:53:38;8.00;99.90
84008;DHT22;74070;50.948;6.954;2024-03-23T08:56:06;8.20;99.90
84008;DHT22;74070;50.948;6.954;2024-03-23T08:58:33;8.30;99.90
84008;DHT22;74070;50.948;6.954;2024-03-23T09:01:04;8.90;99.90
84008;DHT22;74070;50.948;6.954;2024-03-23T09:03:30;8.50;99.90
84008;DHT22;74070;50.948;6.954;2024-03-23T09:05:56;8.80;99.90
84008;DHT22;74070;50.948;6.954;2024-03-23T09:08:24;9.30;99.90
84008;DHT22;74070;50.948;6.954;2024-03-23T09:10:51;9.30;99.90
84008;DHT22;74070;50.948;6.954;2024-03-23T09:13:18;9.40;99.90
84008;DHT22;74070;50.948;6.954;2024-03-23T09:15:49;9.30;99.90
84008;DHT22;74070;50.948;6.954;2024-03-23T09:18:15;9.20;99.90
84008;DHT22;74070;50.948;6.954;2024-03-23T09:20:41;9.00;99.90
84008;DHT22;74070;50.948;6.954;2024-03-23T09:23:08;9.00;99.90
84008;DHT22;74070;50.948;6.954;2024-03-23T09:25:36;8.80;99.90
84008;DHT22;74070;50.948;6.954;2024-03-23T09:28:03;8.40;99.90
84008;DHT22;74070;50.948;6.954;2024-03-23T09:30:31;8.40;99.90
84008;DHT22;74070;50.948;6.954;2024-03-23T09:32:57;8.10;99.90
84008;DHT22;74070;50.948;6.954;2024-03-23T09:35:25;8.10;99.90
84008;DHT22;74070;50.948;6.954;2024-03-23T09:37:52;8.30;99.90
84008;DHT22;74070;50.948;6.954;2024-03-23T09:40:19;8.20;99.90
84008;DHT22;74070;50.948;6.954;2024-03-23T09:42:52;8.40;99.90
84008;DHT22;74070;50.948;6.954;2024-03-23T09:45:20;8.40;99.90
84008;DHT22;74070;50.948;6.954;2024-03-23T09:47:46;8.40;99.90
84008;DHT22;74070;50.948;6.954;2024-03-23T09:50:13;8.40;99.90
84008;DHT22;74070;50.948;6.954;2024-03-23T09:52:40;8.50;99.90
84008;DHT22;74070;50.948;6.954;2024-03-23T09:55:06;8.50;99.90
84008;DHT22;74070;50.948;6.954;2024-03-23T09:57:33;8.60;99.90
84008;DHT22;74070;50.948;6.954;2024-03-23T10:00:00;9.10;99.90
84008;DHT22;74070;50.948;6.954;2024-03-23T10:02:27;9.20;99.90
84008;DHT22;74070;50.948;6.954;2024-03-23T10:04:55;9.40;99.90
84008;DHT22;74070;50.948;6.954;2024-03-23T10:07:22;9.60;99.90
84008;DHT22;74070;50.948;6.954;2024-03-23T10:09:49;9.70;99.90
84008;DHT22;74070;50.948;6.954;2024-03-23T10:12:17;9.60;99.90
84008;DHT22;74070;50.948;6.954;2024-03-23T10:14:44;9.70;99.90
84008;DHT22;74070;50.948;6.954;2024-03-23T10:17:12;9.80;99.90
84008;DHT22;74070;50.948;6.954;2024-03-23T10:19:41;9.70;99.90
84008;DHT22;74070;50.948;6.954;2024-03-23T10:22:08;9.40;99.90
84008;DHT22;74070;50.948;6.954;2024-03-23T10:24:34;9.40;99.90
84008;DHT22;74070;50.948;6.954;2024-03-23T10:27:00;9.40;99.90
84008;DHT22;74070;50.948;6.954;2024-03-23T10:29:27;9.70;99.90
84008;DHT22;74070;50.948;6.954;2024-03-23T10:31:54;9.80;99.90
84008;DHT22;74070;50.948;6.954;2024-03-23T10:34:25;9.80;99.90
84008;DHT22;74070;50.948;6.954;2024-03-23T10:36:53;9.60;99.90
84008;DHT22;74070;50.948;6.954;2024-03-23T10:39:20;9.30;99.90
84008;DHT22;74070;50.948;6.954;2024-03-23T10:41:49;8.70;99.90
84008;DHT22;74070;50.948;6.954;2024-03-23T10:44:13;8.60;99.90
84008;DHT22;74070;50.948;6.954;2024-03-23T10:46:40;8.60;99.90
84008;DHT22;74070;50.948;6.954;2024-03-23T10:49:07;8.90;99.90
84008;DHT22;74070;50.948;6.954;2024-03-23T10:51:35;8.80;99.90
84008;DHT22;74070;50.948;6.954;2024-03-23T10:54:02;8.80;99.90
84008;DHT22;74070;50.948;6.954;2024-03-23T10:56:28;9.00;99.90
84008;DHT22;74070;50.948;6.954;2024-03-23T10:58:55;9.00;99.90
84008;DHT22;74070;50.948;6.954;2024-03-23T11:01:22;9.00;99.90
84008;DHT22;74070;50.948;6.954;2024-03-23T11:03:49;9.00;99.90
84008;DHT22;74070;50.948;6.954;2024-03-23T11:08:55;8.40;99.90
84008;DHT22;74070;50.948;6.954;2024-03-23T11:11:22;8.20;99.90
84008;DHT22;74070;50.948;6.954;2024-03-23T11:13:49;8.10;99.90
84008;DHT22;74070;50.948;6.954;2024-03-23T11:16:17;8.30;99.90
84008;DHT22;74070;50.948;6.954;2024-03-23T11:18:44;9.00;99.90
84008;DHT22;74070;50.948;6.954;2024-03-23T11:21:11;9.60;99.90
84008;DHT22;74070;50.948;6.954;2024-03-23T11:23:38;9.90;99.90
84008;DHT22;74070;50.948;6.954;2024-03-23T11:26:06;9.90;99.90
84008;DHT22;74070;50.948;6.954;2024-03-23T11:28:31;8.90;99.90
84008;DHT22;74070;50.948;6.954;2024-03-23T11:30:59;6.70;99.90
84008;DHT22;74070;50.948;6.954;2024-03-23T11:33:26;6.70;99.90
84008;DHT22;74070;50.948;6.954;2024-03-23T11:35:52;6.50;99.90
84008;DHT22;74070;50.948;6.954;2024-03-23T11:38:19;6.40;99.90
84008;DHT22;74070;50.948;6.954;2024-03-23T11:40:46;6.30;99.90
84008;DHT22;74070;50.948;6.954;2024-03-23T11:43:13;6.40;99.90
84008;DHT22;74070;50.948;6.954;2024-03-23T11:45:40;7.60;99.90
84008;DHT22;74070;50.948;6.954;2024-03-23T11:48:08;8.90;99.90
84008;DHT22;74070;50.948;6.954;2024-03-23T11:50:34;8.70;99.90
84008;DHT22;74070;50.948;6.954;2024-03-23T11:53:08;8.10;99.90
84008;DHT22;74070;50.948;6.954;2024-03-23T11:55:41;7.60;99.90
84008;DHT22;74070;50.948;6.954;2024-03-23T11:58:07;7.80;99.90
84008;DHT22;74070;50.948;6.954;2024-03-23T12:00:34;8.00;99.90
84008;DHT22;74070;50.948;6.954;2024-03-23T12:03:01;7.20;99.90
84008;DHT22;74070;50.948;6.954;2024-03-23T12:05:26;6.50;99.90
84008;DHT22;74070;50.948;6.954;2024-03-23T12:07:53;6.30;99.90
84008;DHT22;74070;50.948;6.954;2024-03-23T12:10:20;6.30;99.90
84008;DHT22;74070;50.948;6.954;2024-03-23T12:12:46;6.30;99.90
84008;DHT22;74070;50.948;6.954;2024-03-23T12:15:13;6.40;99.90
84008;DHT22;74070;50.948;6.954;2024-03-23T12:17:39;6.60;99.90
84008;DHT22;74070;50.948;6.954;2024-03-23T12:20:06;6.90;99.90
84008;DHT22;74070;50.948;6.954;2024-03-23T12:22:33;8.30;99.90
84008;DHT22;74070;50.948;6.954;2024-03-23T12:24:59;9.20;99.90
84008;DHT22;74070;50.948;6.954;2024-03-23T12:27:26;8.80;99.90
84008;DHT22;74070;50.948;6.954;2024-03-23T12:29:52;8.40;99.90
84008;DHT22;74070;50.948;6.954;2024-03-23T12:32:19;7.80;99.90
84008;DHT22;74070;50.948;6.954;2024-03-23T12:34:46;7.30;99.90
84008;DHT22;74070;50.948;6.954;2024-03-23T12:37:12;7.60;99.90
84008;DHT22;74070;50.948;6.954;2024-03-23T12:39:39;7.90;99.90
84008;DHT22;74070;50.948;6.954;2024-03-23T12:42:06;7.60;99.90
84008;DHT22;74070;50.948;6.954;2024-03-23T12:44:32;7.00;99.90
84008;DHT22;74070;50.948;6.954;2024-03-23T12:47:00;6.70;99.90
84008;DHT22;74070;50.948;6.954;2024-03-23T12:49:26;6.10;99.90
84008;DHT22;74070;50.948;6.954;2024-03-23T12:51:54;7.10;99.90
84008;DHT22;74070;50.948;6.954;2024-03-23T12:54:22;8.50;99.90
84008;DHT22;74070;50.948;6.954;2024-03-23T12:56:48;8.50;99.90
84008;DHT22;74070;50.948;6.954;2024-03-23T12:59:15;8.40;99.90
84008;DHT22;74070;50.948;6.954;2024-03-23T13:01:42;8.10;99.90
84008;DHT22;74070;50.948;6.954;2024-03-23T13:04:08;7.90;99.90
84008;DHT22;74070;50.948;6.954;2024-03-23T13:06:35;8.90;99.90
84008;DHT22;74070;50.948;6.954;2024-03-23T13:09:01;10.70;99.90
84008;DHT22;74070;50.948;6.954;2024-03-23T13:11:28;12.10;99.90
84008;DHT22;74070;50.948;6.954;2024-03-23T13:13:55;11.10;99.90
84008;DHT22;74070;50.948;6.954;2024-03-23T13:16:22;11.00;99.90
84008;DHT22;74070;50.948;6.954;2024-03-23T13:18:49;10.10;99.90
84008;DHT22;74070;50.948;6.954;2024-03-23T13:21:15;9.20;99.90
84008;DHT22;74070;50.948;6.954;2024-03-23T13:23:42;8.80;99.90
84008;DHT22;74070;50.948;6.954;2024-03-23T13:26:08;9.00;99.90
84008;DHT22;74070;50.948;6.954;2024-03-23T13:28:35;9.90;99.90
84008;DHT22;74070;50.948;6.954;2024-03-23T13:31:02;12.30;99.90
84008;DHT22;74070;50.948;6.954;2024-03-23T13:33:28;13.90;99.90
84008;DHT22;74070;50.948;6.954;2024-03-23T13:35:55;14.80;99.90
84008;DHT22;74070;50.948;6.954;2024-03-23T13:38:22;13.70;99.90
84008;DHT22;74070;50.948;6.954;2024-03-23T13:40:52;13.80;99.90
84008;DHT22;74070;50.948;6.954;2024-03-23T13:43:18;13.70;99.90
84008;DHT22;74070;50.948;6.954;2024-03-23T13:45:45;13.30;99.90
84008;DHT22;74070;50.948;6.954;2024-03-23T13:48:11;11.80;99.90
84008;DHT22;74070;50.948;6.954;2024-03-23T13:50:37;11.80;99.90
84008;DHT22;74070;50.948;6.954;2024-03-23T13:53:04;12.00;99.90
84008;DHT22;74070;50.948;6.954;2024-03-23T13:55:31;10.30;99.90
84008;DHT22;74070;50.948;6.954;2024-03-23T13:57:59;9.60;99.90
84008;DHT22;74070;50.948;6.954;2024-03-23T14:00:25;9.50;99.90
84008;DHT22;74070;50.948;6.954;2024-03-23T14:02:53;9.00;99.90
84008;DHT22;74070;50.948;6.954;2024-03-23T14:05:20;8.40;99.90
84008;DHT22;74070;50.948;6.954;2024-03-23T14:07:47;8.00;99.90
84008;DHT22;74070;50.948;6.954;2024-03-23T14:10:14;8.00;99.90
84008;DHT22;74070;50.948;6.954;2024-03-23T14:12:40;7.90;99.90
84008;DHT22;74070;50.948;6.954;2024-03-23T14:15:08;7.80;99.90
84008;DHT22;74070;50.948;6.954;2024-03-23T14:17:35;7.70;99.90
84008;DHT22;74070;50.948;6.954;2024-03-23T14:20:01;8.00;99.90
84008;DHT22;74070;50.948;6.954;2024-03-23T14:22:28;8.80;99.90
84008;DHT22;74070;50.948;6.954;2024-03-23T14:24:55;9.90;99.90
84008;DHT22;74070;50.948;6.954;2024-03-23T14:27:21;10.40;99.90
84008;DHT22;74070;50.948;6.954;2024-03-23T14:29:48;10.70;99.90
84008;DHT22;74070;50.948;6.954;2024-03-23T14:32:15;10.00;99.90
84008;DHT22;74070;50.948;6.954;2024-03-23T14:34:42;10.00;99.90
84008;DHT22;74070;50.948;6.954;2024-03-23T14:37:09;9.80;99.90
84008;DHT22;74070;50.948;6.954;2024-03-23T14:39:35;10.10;99.90
84008;DHT22;74070;50.948;6.954;2024-03-23T14:42:02;10.10;99.90
84008;DHT22;74070;50.948;6.954;2024-03-23T14:44:28;9.80;99.90
84008;DHT22;74070;50.948;6.954;2024-03-23T14:46:56;9.20;99.90
84008;DHT22;74070;50.948;6.954;2024-03-23T14:49:22;9.10;99.90
84008;DHT22;74070;50.948;6.954;2024-03-23T14:51:50;8.10;99.90
84008;DHT22;74070;50.948;6.954;2024-03-23T14:54:16;8.00;99.90
84008;DHT22;74070;50.948;6.954;2024-03-23T14:56:44;7.40;99.90
84008;DHT22;74070;50.948;6.954;2024-03-23T14:59:10;7.10;99.90
84008;DHT22;74070;50.948;6.954;2024-03-23T15:01:38;5.90;99.90
84008;DHT22;74070;50.948;6.954;2024-03-23T15:04:05;5.40;99.90
84008;DHT22;74070;50.948;6.954;2024-03-23T15:06:32;5.40;99.90
84008;DHT22;74070;50.948;6.954;2024-03-23T15:08:59;5.10;99.90
84008;DHT22;74070;50.948;6.954;2024-03-23T15:11:26;5.10;99.90
84008;DHT22;74070;50.948;6.954;2024-03-23T15:13:54;5.00;99.90
84008;DHT22;74070;50.948;6.954;2024-03-23T15:16:21;5.10;99.90
84008;DHT22;74070;50.948;6.954;2024-03-23T15:18:48;5.00;99.90
84008;DHT22;74070;50.948;6.954;2024-03-23T15:21:14;5.10;99.90
84008;DHT22;74070;50.948;6.954;2024-03-23T15:23:42;7.10;99.90
84008;DHT22;74070;50.948;6.954;2024-03-23T15:26:08;7.10;99.90
84008;DHT22;74070;50.948;6.954;2024-03-23T15:28:35;8.20;99.90
84008;DHT22;74070;50.948;6.954;2024-03-23T15:31:04;8.60;99.90
84008;DHT22;74070;50.948;6.954;2024-03-23T15:33:31;7.60;99.90
84008;DHT22;74070;50.948;6.954;2024-03-23T15:36:00;7.10;99.90
84008;DHT22;74070;50.948;6.954;2024-03-23T15:38:27;8.10;99.90
84008;DHT22;74070;50.948;6.954;2024-03-23T15:40:53;9.00;99.90
84008;DHT22;74070;50.948;6.954;2024-03-23T15:43:20;10.00;99.90
84008;DHT22;74070;50.948;6.954;2024-03-23T15:45:55;10.40;99.90
84008;DHT22;74070;50.948;6.954;2024-03-23T15:48:21;10.60;99.90
84008;DHT22;74070;50.948;6.954;2024-03-23T15:50:51;9.60;99.90
84008;DHT22;74070;50.948;6.954;2024-03-23T15:53:18;9.50;99.90
84008;DHT22;74070;50.948;6.954;2024-03-23T15:55:44;9.00;99.90
84008;DHT22;74070;50.948;6.954;2024-03-23T15:58:11;8.20;99.90
84008;DHT22;74070;50.948;6.954;2024-03-23T16:00:37;7.40;99.90
84008;DHT22;74070;50.948;6.954;2024-03-23T16:03:04;6.90;99.90
84008;DHT22;74070;50.948;6.954;2024-03-23T16:05:31;6.40;99.90
84008;DHT22;74070;50.948;6.954;2024-03-23T16:07:59;6.30;99.90
84008;DHT22;74070;50.948;6.954;2024-03-23T16:10:26;6.20;99.90
84008;DHT22;74070;50.948;6.954;2024-03-23T16:12:53;6.20;99.90
84008;DHT22;74070;50.948;6.954;2024-03-23T16:15:21;6.20;99.90
84008;DHT22;74070;50.948;6.954;2024-03-23T16:17:48;6.20;99.90
84008;DHT22;74070;50.948;6.954;2024-03-23T16:20:16;6.00;99.90
84008;DHT22;74070;50.948;6.954;2024-03-23T16:22:42;6.00;99.90
84008;DHT22;74070;50.948;6.954;2024-03-23T16:25:09;5.70;99.90
84008;DHT22;74070;50.948;6.954;2024-03-23T16:27:35;6.20;99.90
84008;DHT22;74070;50.948;6.954;2024-03-23T16:30:02;6.90;99.90
84008;DHT22;74070;50.948;6.954;2024-03-23T16:32:29;7.10;99.90
84008;DHT22;74070;50.948;6.954;2024-03-23T16:34:55;7.90;99.90
84008;DHT22;74070;50.948;6.954;2024-03-23T16:37:22;8.40;99.90